Greenwich, New York
Current Conditions -  °F | °C
As of 4:30 AM on Friday 31 Oct 2014 (Local Time) from KGFL Reporting Station
Haze Haze  
Wind Chill: 30°   Ceiling: Unl
Heat Index: 30°   Visibility: 1.7mi
Dew Point: 28°   Wind: 0mph
Humidity: 92%   Direction: NA
Pressure: 30.03"   Gusts: NA
Location:  43.09°N, 73.5°W
Report Text: KGFL 310830Z AUTO 00000KT 1 3/4SM BR CLR M01/M02 A3003 RMK AO2 I1000 T10111022
Loading
Personal Weather Stations






























Interactive Weather Map
Tropical Storm Tracking
New forecast layout! Learn more

10-Day Weather Forecast

Advertisements
Track Severe Weather on mobile